sensor_id;sensor_type;location;lat;lon;timestamp;P1;durP1;ratioP1;P2;durP2;ratioP2
37051;SDS011;22964;52.272;13.356;2022-12-07T00:00:40;9.15;;;5.40;;
37051;SDS011;22964;52.272;13.356;2022-12-07T00:03:06;9.38;;;5.15;;
37051;SDS011;22964;52.272;13.356;2022-12-07T00:05:31;10.35;;;5.72;;
37051;SDS011;22964;52.272;13.356;2022-12-07T00:07:57;9.00;;;5.55;;
37051;SDS011;22964;52.272;13.356;2022-12-07T00:10:22;8.93;;;5.53;;
37051;SDS011;22964;52.272;13.356;2022-12-07T00:12:48;9.40;;;5.50;;
37051;SDS011;22964;52.272;13.356;2022-12-07T00:15:15;7.18;;;4.97;;
37051;SDS011;22964;52.272;13.356;2022-12-07T00:17:41;9.32;;;4.90;;
37051;SDS011;22964;52.272;13.356;2022-12-07T00:20:06;8.40;;;5.10;;
37051;SDS011;22964;52.272;13.356;2022-12-07T00:22:32;6.55;;;4.35;;
37051;SDS011;22964;52.272;13.356;2022-12-07T00:25:01;6.75;;;4.57;;
37051;SDS011;22964;52.272;13.356;2022-12-07T00:27:27;6.88;;;4.85;;
37051;SDS011;22964;52.272;13.356;2022-12-07T00:29:52;7.28;;;4.57;;
37051;SDS011;22964;52.272;13.356;2022-12-07T00:32:18;6.32;;;4.30;;
37051;SDS011;22964;52.272;13.356;2022-12-07T00:34:44;7.28;;;4.70;;
37051;SDS011;22964;52.272;13.356;2022-12-07T00:37:09;7.90;;;4.43;;
37051;SDS011;22964;52.272;13.356;2022-12-07T00:39:35;7.55;;;4.20;;
37051;SDS011;22964;52.272;13.356;2022-12-07T00:42:01;6.55;;;4.28;;
37051;SDS011;22964;52.272;13.356;2022-12-07T00:44:26;6.72;;;4.43;;
37051;SDS011;22964;52.272;13.356;2022-12-07T00:46:52;5.00;;;3.60;;
37051;SDS011;22964;52.272;13.356;2022-12-07T00:49:18;6.38;;;4.13;;
37051;SDS011;22964;52.272;13.356;2022-12-07T00:51:43;5.57;;;4.00;;
37051;SDS011;22964;52.272;13.356;2022-12-07T00:54:09;5.70;;;3.65;;
37051;SDS011;22964;52.272;13.356;2022-12-07T00:56:34;5.63;;;4.00;;
37051;SDS011;22964;52.272;13.356;2022-12-07T00:59:01;5.78;;;4.00;;
37051;SDS011;22964;52.272;13.356;2022-12-07T01:01:29;5.40;;;3.83;;
37051;SDS011;22964;52.272;13.356;2022-12-07T01:03:57;4.97;;;3.58;;
37051;SDS011;22964;52.272;13.356;2022-12-07T01:06:23;5.10;;;3.60;;
37051;SDS011;22964;52.272;13.356;2022-12-07T01:08:49;5.80;;;3.53;;
37051;SDS011;22964;52.272;13.356;2022-12-07T01:11:16;4.82;;;3.22;;
37051;SDS011;22964;52.272;13.356;2022-12-07T01:13:44;5.20;;;3.35;;
37051;SDS011;22964;52.272;13.356;2022-12-07T01:16:14;5.03;;;3.30;;
37051;SDS011;22964;52.272;13.356;2022-12-07T01:18:41;5.40;;;3.25;;
37051;SDS011;22964;52.272;13.356;2022-12-07T01:21:11;4.55;;;3.08;;
37051;SDS011;22964;52.272;13.356;2022-12-07T01:23:39;5.40;;;3.40;;
37051;SDS011;22964;52.272;13.356;2022-12-07T01:26:06;4.18;;;2.97;;
37051;SDS011;22964;52.272;13.356;2022-12-07T01:28:34;4.32;;;3.28;;
37051;SDS011;22964;52.272;13.356;2022-12-07T01:31:01;4.20;;;3.20;;
37051;SDS011;22964;52.272;13.356;2022-12-07T01:33:30;3.97;;;2.97;;
37051;SDS011;22964;52.272;13.356;2022-12-07T01:36:01;4.28;;;3.00;;
37051;SDS011;22964;52.272;13.356;2022-12-07T01:38:29;4.63;;;2.90;;
37051;SDS011;22964;52.272;13.356;2022-12-07T01:40:55;5.15;;;3.22;;
37051;SDS011;22964;52.272;13.356;2022-12-07T01:43:22;5.18;;;3.20;;
37051;SDS011;22964;52.272;13.356;2022-12-07T01:45:50;4.45;;;3.20;;
37051;SDS011;22964;52.272;13.356;2022-12-07T01:48:17;4.85;;;3.22;;
37051;SDS011;22964;52.272;13.356;2022-12-07T01:50:47;5.57;;;3.40;;
37051;SDS011;22964;52.272;13.356;2022-12-07T01:53:15;4.53;;;2.90;;
37051;SDS011;22964;52.272;13.356;2022-12-07T01:55:43;5.65;;;3.20;;
37051;SDS011;22964;52.272;13.356;2022-12-07T01:58:10;5.38;;;3.30;;
37051;SDS011;22964;52.272;13.356;2022-12-07T02:00:37;6.28;;;3.50;;
37051;SDS011;22964;52.272;13.356;2022-12-07T02:03:11;6.13;;;3.70;;
37051;SDS011;22964;52.272;13.356;2022-12-07T02:05:45;6.68;;;3.45;;
37051;SDS011;22964;52.272;13.356;2022-12-07T02:08:12;5.85;;;3.20;;
37051;SDS011;22964;52.272;13.356;2022-12-07T02:10:38;5.85;;;3.45;;
37051;SDS011;22964;52.272;13.356;2022-12-07T02:13:06;5.70;;;3.50;;
37051;SDS011;22964;52.272;13.356;2022-12-07T02:29:38;5.22;;;3.30;;
37051;SDS011;22964;52.272;13.356;2022-12-07T02:32:07;5.13;;;3.33;;
37051;SDS011;22964;52.272;13.356;2022-12-07T02:34:50;4.88;;;3.20;;
37051;SDS011;22964;52.272;13.356;2022-12-07T02:40:22;5.10;;;3.28;;
37051;SDS011;22964;52.272;13.356;2022-12-07T02:45:54;4.68;;;3.10;;
37051;SDS011;22964;52.272;13.356;2022-12-07T02:48:23;6.00;;;3.47;;
37051;SDS011;22964;52.272;13.356;2022-12-07T02:50:50;5.72;;;3.38;;
37051;SDS011;22964;52.272;13.356;2022-12-07T02:53:34;4.90;;;3.38;;
37051;SDS011;22964;52.272;13.356;2022-12-07T02:56:15;5.15;;;3.40;;
37051;SDS011;22964;52.272;13.356;2022-12-07T03:04:52;5.65;;;3.50;;
37051;SDS011;22964;52.272;13.356;2022-12-07T03:21:53;5.88;;;3.70;;
37051;SDS011;22964;52.272;13.356;2022-12-07T03:24:44;6.32;;;3.85;;
37051;SDS011;22964;52.272;13.356;2022-12-07T03:27:13;8.23;;;3.92;;
37051;SDS011;22964;52.272;13.356;2022-12-07T03:30:02;6.80;;;4.20;;
37051;SDS011;22964;52.272;13.356;2022-12-07T03:32:36;6.53;;;3.85;;
37051;SDS011;22964;52.272;13.356;2022-12-07T03:35:12;6.40;;;4.05;;
37051;SDS011;22964;52.272;13.356;2022-12-07T03:37:47;7.43;;;4.20;;
37051;SDS011;22964;52.272;13.356;2022-12-07T03:40:18;6.55;;;3.70;;
37051;SDS011;22964;52.272;13.356;2022-12-07T03:42:53;7.25;;;4.13;;
37051;SDS011;22964;52.272;13.356;2022-12-07T03:45:20;6.85;;;4.30;;
37051;SDS011;22964;52.272;13.356;2022-12-07T03:48:05;6.45;;;4.25;;
37051;SDS011;22964;52.272;13.356;2022-12-07T03:50:58;7.60;;;4.38;;
37051;SDS011;22964;52.272;13.356;2022-12-07T03:53:30;8.35;;;4.50;;
37051;SDS011;22964;52.272;13.356;2022-12-07T03:56:06;7.22;;;4.32;;
37051;SDS011;22964;52.272;13.356;2022-12-07T03:58:33;7.82;;;4.65;;
37051;SDS011;22964;52.272;13.356;2022-12-07T04:00:59;7.95;;;4.45;;
37051;SDS011;22964;52.272;13.356;2022-12-07T04:03:26;9.63;;;4.60;;
37051;SDS011;22964;52.272;13.356;2022-12-07T04:05:52;8.98;;;5.00;;
37051;SDS011;22964;52.272;13.356;2022-12-07T04:08:18;8.82;;;5.00;;
37051;SDS011;22964;52.272;13.356;2022-12-07T04:10:44;8.85;;;5.20;;
37051;SDS011;22964;52.272;13.356;2022-12-07T04:13:09;9.70;;;6.07;;
37051;SDS011;22964;52.272;13.356;2022-12-07T04:15:35;10.95;;;6.28;;
37051;SDS011;22964;52.272;13.356;2022-12-07T04:18:01;9.88;;;6.00;;
37051;SDS011;22964;52.272;13.356;2022-12-07T04:20:26;12.93;;;6.47;;
37051;SDS011;22964;52.272;13.356;2022-12-07T04:22:52;10.38;;;6.20;;
37051;SDS011;22964;52.272;13.356;2022-12-07T04:25:18;11.88;;;6.57;;
37051;SDS011;22964;52.272;13.356;2022-12-07T04:27:43;10.00;;;6.40;;
37051;SDS011;22964;52.272;13.356;2022-12-07T04:30:09;12.43;;;6.93;;
37051;SDS011;22964;52.272;13.356;2022-12-07T04:32:35;12.00;;;7.20;;
37051;SDS011;22964;52.272;13.356;2022-12-07T04:35:01;11.52;;;7.20;;
37051;SDS011;22964;52.272;13.356;2022-12-07T04:37:27;13.50;;;7.68;;
37051;SDS011;22964;52.272;13.356;2022-12-07T04:39:53;15.35;;;8.02;;
37051;SDS011;22964;52.272;13.356;2022-12-07T04:42:19;13.35;;;7.55;;
37051;SDS011;22964;52.272;13.356;2022-12-07T04:44:44;14.10;;;7.38;;
37051;SDS011;22964;52.272;13.356;2022-12-07T04:47:10;14.48;;;7.43;;
37051;SDS011;22964;52.272;13.356;2022-12-07T04:49:36;17.90;;;8.98;;
37051;SDS011;22964;52.272;13.356;2022-12-07T04:52:01;15.82;;;8.75;;
37051;SDS011;22964;52.272;13.356;2022-12-07T04:54:27;17.42;;;8.80;;
37051;SDS011;22964;52.272;13.356;2022-12-07T04:56:53;18.02;;;9.68;;
37051;SDS011;22964;52.272;13.356;2022-12-07T04:59:19;16.58;;;9.07;;
37051;SDS011;22964;52.272;13.356;2022-12-07T05:01:44;19.95;;;9.15;;
37051;SDS011;22964;52.272;13.356;2022-12-07T05:04:10;18.48;;;9.63;;
37051;SDS011;22964;52.272;13.356;2022-12-07T05:06:36;19.45;;;10.02;;
37051;SDS011;22964;52.272;13.356;2022-12-07T05:09:02;17.23;;;9.23;;
37051;SDS011;22964;52.272;13.356;2022-12-07T05:11:28;19.30;;;10.05;;
37051;SDS011;22964;52.272;13.356;2022-12-07T05:14:07;19.75;;;10.18;;
37051;SDS011;22964;52.272;13.356;2022-12-07T05:16:41;19.85;;;10.25;;
37051;SDS011;22964;52.272;13.356;2022-12-07T05:19:08;20.38;;;9.55;;
37051;SDS011;22964;52.272;13.356;2022-12-07T05:21:34;19.02;;;9.68;;
37051;SDS011;22964;52.272;13.356;2022-12-07T05:24:01;16.40;;;8.93;;
37051;SDS011;22964;52.272;13.356;2022-12-07T05:26:27;16.98;;;9.35;;
37051;SDS011;22964;52.272;13.356;2022-12-07T05:28:54;18.23;;;9.70;;
37051;SDS011;22964;52.272;13.356;2022-12-07T05:31:21;18.48;;;9.65;;
37051;SDS011;22964;52.272;13.356;2022-12-07T05:33:48;18.15;;;9.65;;
37051;SDS011;22964;52.272;13.356;2022-12-07T05:36:14;17.33;;;9.25;;
37051;SDS011;22964;52.272;13.356;2022-12-07T05:38:40;17.38;;;9.30;;
37051;SDS011;22964;52.272;13.356;2022-12-07T05:41:06;19.23;;;9.63;;
37051;SDS011;22964;52.272;13.356;2022-12-07T05:43:53;16.95;;;9.18;;
37051;SDS011;22964;52.272;13.356;2022-12-07T05:46:20;19.10;;;9.85;;
37051;SDS011;22964;52.272;13.356;2022-12-07T05:48:45;16.75;;;8.88;;
37051;SDS011;22964;52.272;13.356;2022-12-07T05:51:12;16.85;;;9.45;;
37051;SDS011;22964;52.272;13.356;2022-12-07T05:53:37;16.15;;;8.57;;
37051;SDS011;22964;52.272;13.356;2022-12-07T05:56:03;16.80;;;8.98;;
37051;SDS011;22964;52.272;13.356;2022-12-07T05:58:29;17.90;;;9.30;;
37051;SDS011;22964;52.272;13.356;2022-12-07T06:01:13;17.85;;;9.23;;
37051;SDS011;22964;52.272;13.356;2022-12-07T06:03:39;14.88;;;8.00;;
37051;SDS011;22964;52.272;13.356;2022-12-07T06:06:04;16.13;;;8.73;;
37051;SDS011;22964;52.272;13.356;2022-12-07T06:08:30;19.45;;;9.20;;
37051;SDS011;22964;52.272;13.356;2022-12-07T06:10:56;16.60;;;9.30;;
37051;SDS011;22964;52.272;13.356;2022-12-07T06:13:40;16.00;;;8.73;;
37051;SDS011;22964;52.272;13.356;2022-12-07T06:16:06;15.48;;;8.65;;
37051;SDS011;22964;52.272;13.356;2022-12-07T06:18:32;15.80;;;8.50;;
37051;SDS011;22964;52.272;13.356;2022-12-07T06:20:58;16.33;;;9.25;;
37051;SDS011;22964;52.272;13.356;2022-12-07T06:23:23;16.55;;;8.65;;
37051;SDS011;22964;52.272;13.356;2022-12-07T06:25:49;17.10;;;9.88;;
37051;SDS011;22964;52.272;13.356;2022-12-07T06:28:14;17.10;;;8.93;;
37051;SDS011;22964;52.272;13.356;2022-12-07T06:30:40;16.98;;;8.90;;
37051;SDS011;22964;52.272;13.356;2022-12-07T06:33:06;16.95;;;9.43;;
37051;SDS011;22964;52.272;13.356;2022-12-07T06:35:32;16.30;;;9.25;;
37051;SDS011;22964;52.272;13.356;2022-12-07T06:37:58;17.98;;;9.85;;
37051;SDS011;22964;52.272;13.356;2022-12-07T06:40:24;14.63;;;8.63;;
37051;SDS011;22964;52.272;13.356;2022-12-07T06:42:50;15.75;;;9.10;;
37051;SDS011;22964;52.272;13.356;2022-12-07T06:45:15;18.40;;;10.32;;
37051;SDS011;22964;52.272;13.356;2022-12-07T06:47:41;17.90;;;10.35;;
37051;SDS011;22964;52.272;13.356;2022-12-07T06:50:07;17.45;;;9.57;;
37051;SDS011;22964;52.272;13.356;2022-12-07T06:52:33;16.60;;;9.50;;
37051;SDS011;22964;52.272;13.356;2022-12-07T06:54:59;15.75;;;9.63;;
37051;SDS011;22964;52.272;13.356;2022-12-07T06:57:24;15.68;;;9.32;;
37051;SDS011;22964;52.272;13.356;2022-12-07T06:59:50;15.07;;;8.90;;
37051;SDS011;22964;52.272;13.356;2022-12-07T07:02:16;15.38;;;9.50;;
37051;SDS011;22964;52.272;13.356;2022-12-07T07:04:43;13.80;;;8.52;;
37051;SDS011;22964;52.272;13.356;2022-12-07T07:07:08;14.80;;;9.23;;
37051;SDS011;22964;52.272;13.356;2022-12-07T07:09:34;15.00;;;8.40;;
37051;SDS011;22964;52.272;13.356;2022-12-07T07:12:00;18.20;;;9.60;;
37051;SDS011;22964;52.272;13.356;2022-12-07T07:14:25;15.63;;;8.52;;
37051;SDS011;22964;52.272;13.356;2022-12-07T07:16:51;14.88;;;9.10;;
37051;SDS011;22964;52.272;13.356;2022-12-07T07:19:17;16.42;;;9.38;;
37051;SDS011;22964;52.272;13.356;2022-12-07T07:21:43;13.98;;;8.75;;
37051;SDS011;22964;52.272;13.356;2022-12-07T07:24:08;16.58;;;9.05;;
37051;SDS011;22964;52.272;13.356;2022-12-07T07:26:34;17.65;;;9.18;;
37051;SDS011;22964;52.272;13.356;2022-12-07T07:29:00;18.40;;;9.88;;
37051;SDS011;22964;52.272;13.356;2022-12-07T07:31:25;17.13;;;10.18;;
37051;SDS011;22964;52.272;13.356;2022-12-07T07:33:51;22.77;;;11.32;;
37051;SDS011;22964;52.272;13.356;2022-12-07T07:36:17;30.73;;;14.15;;
37051;SDS011;22964;52.272;13.356;2022-12-07T07:38:43;33.42;;;14.75;;
37051;SDS011;22964;52.272;13.356;2022-12-07T07:41:09;27.23;;;13.43;;
37051;SDS011;22964;52.272;13.356;2022-12-07T07:43:34;29.08;;;12.93;;
37051;SDS011;22964;52.272;13.356;2022-12-07T07:46:00;23.48;;;12.68;;
37051;SDS011;22964;52.272;13.356;2022-12-07T07:48:26;20.05;;;11.32;;
37051;SDS011;22964;52.272;13.356;2022-12-07T07:50:51;19.80;;;11.63;;
37051;SDS011;22964;52.272;13.356;2022-12-07T07:53:17;17.23;;;10.00;;
37051;SDS011;22964;52.272;13.356;2022-12-07T07:55:52;15.82;;;9.68;;
37051;SDS011;22964;52.272;13.356;2022-12-07T07:58:19;16.25;;;9.73;;
37051;SDS011;22964;52.272;13.356;2022-12-07T08:00:45;15.48;;;9.27;;
37051;SDS011;22964;52.272;13.356;2022-12-07T08:03:11;16.33;;;9.98;;
37051;SDS011;22964;52.272;13.356;2022-12-07T08:05:37;16.08;;;9.60;;
37051;SDS011;22964;52.272;13.356;2022-12-07T08:08:03;15.80;;;9.38;;
37051;SDS011;22964;52.272;13.356;2022-12-07T08:10:29;16.58;;;9.20;;
37051;SDS011;22964;52.272;13.356;2022-12-07T08:12:57;14.68;;;9.00;;
37051;SDS011;22964;52.272;13.356;2022-12-07T08:15:42;14.57;;;8.67;;
37051;SDS011;22964;52.272;13.356;2022-12-07T08:18:09;15.10;;;9.23;;
37051;SDS011;22964;52.272;13.356;2022-12-07T08:20:36;13.07;;;8.07;;
37051;SDS011;22964;52.272;13.356;2022-12-07T08:23:03;13.40;;;8.60;;
37051;SDS011;22964;52.272;13.356;2022-12-07T08:25:29;14.95;;;7.97;;
37051;SDS011;22964;52.272;13.356;2022-12-07T08:27:55;14.65;;;7.80;;
37051;SDS011;22964;52.272;13.356;2022-12-07T08:30:21;13.73;;;8.13;;
37051;SDS011;22964;52.272;13.356;2022-12-07T08:32:47;14.73;;;7.90;;
37051;SDS011;22964;52.272;13.356;2022-12-07T08:35:13;13.27;;;7.25;;
37051;SDS011;22964;52.272;13.356;2022-12-07T08:37:40;10.35;;;6.93;;
37051;SDS011;22964;52.272;13.356;2022-12-07T08:40:06;11.52;;;6.20;;
37051;SDS011;22964;52.272;13.356;2022-12-07T08:42:33;9.32;;;5.90;;
37051;SDS011;22964;52.272;13.356;2022-12-07T08:45:09;9.18;;;5.30;;
37051;SDS011;22964;52.272;13.356;2022-12-07T08:47:46;8.25;;;5.60;;
37051;SDS011;22964;52.272;13.356;2022-12-07T08:50:19;7.80;;;4.45;;
37051;SDS011;22964;52.272;13.356;2022-12-07T08:52:48;7.85;;;4.25;;
37051;SDS011;22964;52.272;13.356;2022-12-07T08:55:16;5.85;;;4.00;;
37051;SDS011;22964;52.272;13.356;2022-12-07T08:57:42;7.68;;;4.70;;
37051;SDS011;22964;52.272;13.356;2022-12-07T09:00:08;8.30;;;4.85;;
37051;SDS011;22964;52.272;13.356;2022-12-07T09:02:35;10.68;;;5.38;;
37051;SDS011;22964;52.272;13.356;2022-12-07T09:05:00;10.27;;;5.70;;
37051;SDS011;22964;52.272;13.356;2022-12-07T09:07:26;9.60;;;5.57;;
37051;SDS011;22964;52.272;13.356;2022-12-07T09:09:52;10.38;;;5.75;;
37051;SDS011;22964;52.272;13.356;2022-12-07T09:12:18;8.50;;;4.93;;
37051;SDS011;22964;52.272;13.356;2022-12-07T09:14:44;8.25;;;4.85;;
37051;SDS011;22964;52.272;13.356;2022-12-07T09:17:10;7.47;;;4.57;;
37051;SDS011;22964;52.272;13.356;2022-12-07T09:19:37;8.50;;;4.50;;
37051;SDS011;22964;52.272;13.356;2022-12-07T09:22:04;8.35;;;4.72;;
37051;SDS011;22964;52.272;13.356;2022-12-07T09:24:30;7.07;;;4.35;;
37051;SDS011;22964;52.272;13.356;2022-12-07T09:26:57;8.30;;;4.30;;
37051;SDS011;22964;52.272;13.356;2022-12-07T09:29:23;6.72;;;4.00;;
37051;SDS011;22964;52.272;13.356;2022-12-07T09:31:49;7.25;;;3.60;;
37051;SDS011;22964;52.272;13.356;2022-12-07T09:34:14;5.57;;;3.25;;
37051;SDS011;22964;52.272;13.356;2022-12-07T09:36:40;6.80;;;3.35;;
37051;SDS011;22964;52.272;13.356;2022-12-07T09:39:07;5.80;;;3.13;;
37051;SDS011;22964;52.272;13.356;2022-12-07T09:41:33;4.85;;;2.55;;
37051;SDS011;22964;52.272;13.356;2022-12-07T09:44:08;7.18;;;3.28;;
37051;SDS011;22964;52.272;13.356;2022-12-07T09:46:38;3.33;;;2.45;;
37051;SDS011;22964;52.272;13.356;2022-12-07T09:49:08;4.20;;;2.60;;
37051;SDS011;22964;52.272;13.356;2022-12-07T09:51:41;4.45;;;2.90;;
37051;SDS011;22964;52.272;13.356;2022-12-07T09:54:07;4.05;;;2.80;;
37051;SDS011;22964;52.272;13.356;2022-12-07T09:56:36;4.72;;;2.60;;
37051;SDS011;22964;52.272;13.356;2022-12-07T09:59:02;5.10;;;2.42;;
37051;SDS011;22964;52.272;13.356;2022-12-07T10:01:29;5.32;;;2.33;;
37051;SDS011;22964;52.272;13.356;2022-12-07T10:04:19;4.25;;;2.42;;
37051;SDS011;22964;52.272;13.356;2022-12-07T10:06:50;4.43;;;2.30;;
37051;SDS011;22964;52.272;13.356;2022-12-07T10:09:17;3.30;;;2.22;;
37051;SDS011;22964;52.272;13.356;2022-12-07T10:14:32;2.85;;;2.00;;
37051;SDS011;22964;52.272;13.356;2022-12-07T10:16:59;3.72;;;2.30;;
37051;SDS011;22964;52.272;13.356;2022-12-07T10:19:30;4.45;;;2.50;;
37051;SDS011;22964;52.272;13.356;2022-12-07T10:21:59;3.55;;;2.40;;
37051;SDS011;22964;52.272;13.356;2022-12-07T10:24:36;3.67;;;2.15;;
37051;SDS011;22964;52.272;13.356;2022-12-07T10:27:16;4.07;;;2.35;;
37051;SDS011;22964;52.272;13.356;2022-12-07T10:29:55;3.97;;;2.58;;
37051;SDS011;22964;52.272;13.356;2022-12-07T10:32:33;3.05;;;2.30;;
37051;SDS011;22964;52.272;13.356;2022-12-07T10:37:53;6.03;;;2.28;;
37051;SDS011;22964;52.272;13.356;2022-12-07T10:40:25;4.28;;;2.40;;
37051;SDS011;22964;52.272;13.356;2022-12-07T10:43:01;6.10;;;2.80;;
37051;SDS011;22964;52.272;13.356;2022-12-07T10:48:32;5.25;;;2.20;;
37051;SDS011;22964;52.272;13.356;2022-12-07T10:51:26;4.57;;;2.53;;
37051;SDS011;22964;52.272;13.356;2022-12-07T10:54:23;4.63;;;2.40;;
37051;SDS011;22964;52.272;13.356;2022-12-07T10:57:19;3.85;;;2.10;;
37051;SDS011;22964;52.272;13.356;2022-12-07T11:00:06;3.63;;;2.20;;
37051;SDS011;22964;52.272;13.356;2022-12-07T11:02:50;4.72;;;2.20;;
37051;SDS011;22964;52.272;13.356;2022-12-07T11:05:32;2.95;;;2.05;;
37051;SDS011;22964;52.272;13.356;2022-12-07T11:16:24;3.28;;;2.20;;
37051;SDS011;22964;52.272;13.356;2022-12-07T11:21:42;3.47;;;2.00;;
37051;SDS011;22964;52.272;13.356;2022-12-07T11:27:19;3.55;;;1.85;;
37051;SDS011;22964;52.272;13.356;2022-12-07T11:31:00;3.22;;;2.00;;
37051;SDS011;22964;52.272;13.356;2022-12-07T11:33:09;4.70;;;2.58;;
37051;SDS011;22964;52.272;13.356;2022-12-07T11:36:04;3.17;;;1.88;;
37051;SDS011;22964;52.272;13.356;2022-12-07T11:38:53;4.43;;;1.80;;
37051;SDS011;22964;52.272;13.356;2022-12-07T11:41:37;3.65;;;2.33;;
37051;SDS011;22964;52.272;13.356;2022-12-07T11:46:47;4.35;;;2.03;;
37051;SDS011;22964;52.272;13.356;2022-12-07T11:49:27;2.50;;;1.80;;
37051;SDS011;22964;52.272;13.356;2022-12-07T11:52:14;3.53;;;1.70;;
37051;SDS011;22964;52.272;13.356;2022-12-07T11:54:52;3.88;;;1.73;;
37051;SDS011;22964;52.272;13.356;2022-12-07T11:57:25;3.80;;;1.90;;
37051;SDS011;22964;52.272;13.356;2022-12-07T11:59:59;2.90;;;1.70;;
37051;SDS011;22964;52.272;13.356;2022-12-07T12:03:15;2.42;;;1.70;;
37051;SDS011;22964;52.272;13.356;2022-12-07T12:05:23;5.10;;;1.92;;
37051;SDS011;22964;52.272;13.356;2022-12-07T12:08:13;4.35;;;1.83;;
37051;SDS011;22964;52.272;13.356;2022-12-07T12:22:37;6.18;;;1.90;;
37051;SDS011;22964;52.272;13.356;2022-12-07T12:25:06;4.13;;;1.60;;
37051;SDS011;22964;52.272;13.356;2022-12-07T12:27:42;5.10;;;1.70;;
37051;SDS011;22964;52.272;13.356;2022-12-07T12:33:03;5.40;;;1.80;;
37051;SDS011;22964;52.272;13.356;2022-12-07T12:35:38;3.42;;;1.77;;
37051;SDS011;22964;52.272;13.356;2022-12-07T12:38:25;2.70;;;1.50;;
37051;SDS011;22964;52.272;13.356;2022-12-07T12:43:39;3.97;;;1.70;;
37051;SDS011;22964;52.272;13.356;2022-12-07T12:51:42;7.30;;;2.10;;
37051;SDS011;22964;52.272;13.356;2022-12-07T12:54:14;3.90;;;1.90;;
37051;SDS011;22964;52.272;13.356;2022-12-07T12:56:46;3.88;;;1.60;;
37051;SDS011;22964;52.272;13.356;2022-12-07T13:01:48;4.38;;;1.80;;
37051;SDS011;22964;52.272;13.356;2022-12-07T13:04:40;3.20;;;1.60;;
37051;SDS011;22964;52.272;13.356;2022-12-07T13:13:02;3.13;;;1.58;;
37051;SDS011;22964;52.272;13.356;2022-12-07T13:16:36;2.67;;;1.67;;
37051;SDS011;22964;52.272;13.356;2022-12-07T13:31:41;4.15;;;1.70;;
37051;SDS011;22964;52.272;13.356;2022-12-07T13:34:30;6.75;;;1.95;;
37051;SDS011;22964;52.272;13.356;2022-12-07T13:37:00;4.13;;;1.55;;
37051;SDS011;22964;52.272;13.356;2022-12-07T13:39:45;5.88;;;1.60;;
37051;SDS011;22964;52.272;13.356;2022-12-07T13:42:24;2.95;;;1.58;;
37051;SDS011;22964;52.272;13.356;2022-12-07T13:44:58;4.43;;;1.70;;
37051;SDS011;22964;52.272;13.356;2022-12-07T13:47:30;4.22;;;1.75;;
37051;SDS011;22964;52.272;13.356;2022-12-07T13:50:01;4.18;;;1.63;;
37051;SDS011;22964;52.272;13.356;2022-12-07T13:52:45;3.97;;;1.77;;
37051;SDS011;22964;52.272;13.356;2022-12-07T13:55:14;3.10;;;1.70;;
37051;SDS011;22964;52.272;13.356;2022-12-07T13:57:42;4.72;;;1.90;;
37051;SDS011;22964;52.272;13.356;2022-12-07T14:00:16;6.82;;;1.90;;
37051;SDS011;22964;52.272;13.356;2022-12-07T14:02:55;3.00;;;1.58;;
37051;SDS011;22964;52.272;13.356;2022-12-07T14:08:03;5.28;;;2.28;;
37051;SDS011;22964;52.272;13.356;2022-12-07T14:12:57;3.95;;;1.80;;
37051;SDS011;22964;52.272;13.356;2022-12-07T14:15:24;3.08;;;1.80;;
37051;SDS011;22964;52.272;13.356;2022-12-07T14:21:01;7.63;;;2.10;;
37051;SDS011;22964;52.272;13.356;2022-12-07T14:23:24;5.45;;;1.98;;
37051;SDS011;22964;52.272;13.356;2022-12-07T14:25:52;4.43;;;2.08;;
37051;SDS011;22964;52.272;13.356;2022-12-07T14:28:26;4.65;;;2.10;;
37051;SDS011;22964;52.272;13.356;2022-12-07T14:31:00;5.70;;;2.45;;
37051;SDS011;22964;52.272;13.356;2022-12-07T14:33:26;4.05;;;2.13;;
37051;SDS011;22964;52.272;13.356;2022-12-07T14:35:53;5.60;;;2.10;;
37051;SDS011;22964;52.272;13.356;2022-12-07T14:38:23;3.70;;;2.20;;
37051;SDS011;22964;52.272;13.356;2022-12-07T14:40:50;9.48;;;2.35;;
37051;SDS011;22964;52.272;13.356;2022-12-07T14:43:17;5.60;;;2.30;;
37051;SDS011;22964;52.272;13.356;2022-12-07T14:45:44;4.35;;;1.90;;
37051;SDS011;22964;52.272;13.356;2022-12-07T14:48:11;3.78;;;2.20;;
37051;SDS011;22964;52.272;13.356;2022-12-07T14:50:41;4.78;;;2.20;;
37051;SDS011;22964;52.272;13.356;2022-12-07T14:53:13;8.40;;;2.00;;
37051;SDS011;22964;52.272;13.356;2022-12-07T14:55:41;4.05;;;2.00;;
37051;SDS011;22964;52.272;13.356;2022-12-07T14:58:11;4.00;;;2.00;;
37051;SDS011;22964;52.272;13.356;2022-12-07T15:00:41;4.82;;;1.98;;
37051;SDS011;22964;52.272;13.356;2022-12-07T15:03:08;3.95;;;1.88;;
37051;SDS011;22964;52.272;13.356;2022-12-07T15:05:33;5.30;;;1.70;;
37051;SDS011;22964;52.272;13.356;2022-12-07T15:08:00;4.75;;;1.60;;
37051;SDS011;22964;52.272;13.356;2022-12-07T15:10:31;5.50;;;1.95;;
37051;SDS011;22964;52.272;13.356;2022-12-07T15:12:58;4.68;;;2.00;;
37051;SDS011;22964;52.272;13.356;2022-12-07T15:15:46;4.53;;;2.10;;
37051;SDS011;22964;52.272;13.356;2022-12-07T15:18:13;5.05;;;1.73;;
37051;SDS011;22964;52.272;13.356;2022-12-07T15:20:39;5.82;;;1.65;;
37051;SDS011;22964;52.272;13.356;2022-12-07T15:23:05;6.80;;;2.15;;
37051;SDS011;22964;52.272;13.356;2022-12-07T15:25:31;4.20;;;2.10;;
37051;SDS011;22964;52.272;13.356;2022-12-07T15:27:57;5.78;;;2.03;;
37051;SDS011;22964;52.272;13.356;2022-12-07T15:30:23;3.92;;;1.90;;
37051;SDS011;22964;52.272;13.356;2022-12-07T15:32:49;4.07;;;2.00;;
37051;SDS011;22964;52.272;13.356;2022-12-07T15:35:15;4.85;;;1.85;;
37051;SDS011;22964;52.272;13.356;2022-12-07T15:37:41;5.90;;;2.13;;
37051;SDS011;22964;52.272;13.356;2022-12-07T15:40:07;3.38;;;1.83;;
37051;SDS011;22964;52.272;13.356;2022-12-07T15:42:33;5.57;;;2.20;;
37051;SDS011;22964;52.272;13.356;2022-12-07T15:45:00;6.55;;;2.10;;
37051;SDS011;22964;52.272;13.356;2022-12-07T15:47:29;4.32;;;2.00;;
37051;SDS011;22964;52.272;13.356;2022-12-07T15:50:03;6.50;;;2.20;;
37051;SDS011;22964;52.272;13.356;2022-12-07T15:52:30;6.07;;;1.95;;
37051;SDS011;22964;52.272;13.356;2022-12-07T15:54:56;4.88;;;2.15;;
37051;SDS011;22964;52.272;13.356;2022-12-07T15:57:22;5.43;;;2.20;;
37051;SDS011;22964;52.272;13.356;2022-12-07T15:59:47;4.20;;;2.10;;
37051;SDS011;22964;52.272;13.356;2022-12-07T16:02:13;5.93;;;2.22;;
37051;SDS011;22964;52.272;13.356;2022-12-07T16:04:39;5.85;;;2.20;;
37051;SDS011;22964;52.272;13.356;2022-12-07T16:07:04;4.35;;;2.30;;
37051;SDS011;22964;52.272;13.356;2022-12-07T16:09:30;7.45;;;2.15;;
37051;SDS011;22964;52.272;13.356;2022-12-07T16:11:56;5.13;;;2.28;;
37051;SDS011;22964;52.272;13.356;2022-12-07T16:14:22;4.43;;;1.80;;
37051;SDS011;22964;52.272;13.356;2022-12-07T16:16:48;5.80;;;2.28;;
37051;SDS011;22964;52.272;13.356;2022-12-07T16:19:14;3.70;;;2.00;;
37051;SDS011;22964;52.272;13.356;2022-12-07T16:21:40;5.45;;;2.25;;
37051;SDS011;22964;52.272;13.356;2022-12-07T16:24:05;7.82;;;2.45;;
37051;SDS011;22964;52.272;13.356;2022-12-07T16:26:32;4.88;;;1.90;;
37051;SDS011;22964;52.272;13.356;2022-12-07T16:28:57;5.35;;;2.10;;
37051;SDS011;22964;52.272;13.356;2022-12-07T16:31:24;6.00;;;2.47;;
37051;SDS011;22964;52.272;13.356;2022-12-07T16:33:52;5.07;;;2.22;;
37051;SDS011;22964;52.272;13.356;2022-12-07T16:36:19;3.05;;;2.00;;
37051;SDS011;22964;52.272;13.356;2022-12-07T16:38:47;3.60;;;2.00;;
37051;SDS011;22964;52.272;13.356;2022-12-07T16:41:13;6.93;;;2.55;;
37051;SDS011;22964;52.272;13.356;2022-12-07T16:43:39;5.00;;;2.53;;